sensor_id;sensor_type;location;lat;lon;timestamp;temperature;humidity
67005;HTU21D;53920;51.094;5.902;2023-04-25T00:00:00;8.64;67.70
67005;HTU21D;53920;51.094;5.902;2023-04-25T00:02:26;8.63;67.72
67005;HTU21D;53920;51.094;5.902;2023-04-25T00:04:53;8.62;67.81
67005;HTU21D;53920;51.094;5.902;2023-04-25T00:07:21;8.58;67.81
67005;HTU21D;53920;51.094;5.902;2023-04-25T00:09:47;8.53;67.90
67005;HTU21D;53920;51.094;5.902;2023-04-25T00:12:12;8.48;68.07
67005;HTU21D;53920;51.094;5.902;2023-04-25T00:14:38;8.44;68.18
67005;HTU21D;53920;51.094;5.902;2023-04-25T00:17:04;8.38;68.33
67005;HTU21D;53920;51.094;5.902;2023-04-25T00:19:31;8.33;68.40
67005;HTU21D;53920;51.094;5.902;2023-04-25T00:21:58;8.29;68.67
67005;HTU21D;53920;51.094;5.902;2023-04-25T00:24:24;8.26;68.91
67005;HTU21D;53920;51.094;5.902;2023-04-25T00:26:49;8.24;68.96
67005;HTU21D;53920;51.094;5.902;2023-04-25T00:29:16;8.20;69.10
67005;HTU21D;53920;51.094;5.902;2023-04-25T00:31:42;8.19;69.23
67005;HTU21D;53920;51.094;5.902;2023-04-25T00:34:08;8.20;69.21
67005;HTU21D;53920;51.094;5.902;2023-04-25T00:36:35;8.15;69.37
67005;HTU21D;53920;51.094;5.902;2023-04-25T00:39:00;8.13;69.44
67005;HTU21D;53920;51.094;5.902;2023-04-25T00:41:26;8.13;69.61
67005;HTU21D;53920;51.094;5.902;2023-04-25T00:43:54;8.12;69.76
67005;HTU21D;53920;51.094;5.902;2023-04-25T00:46:21;8.11;69.70
67005;HTU21D;53920;51.094;5.902;2023-04-25T00:48:47;8.11;69.70
67005;HTU21D;53920;51.094;5.902;2023-04-25T00:51:16;8.11;69.85
67005;HTU21D;53920;51.094;5.902;2023-04-25T00:53:45;8.11;69.99
67005;HTU21D;53920;51.094;5.902;2023-04-25T00:56:12;8.11;70.03
67005;HTU21D;53920;51.094;5.902;2023-04-25T00:58:38;8.14;69.92
67005;HTU21D;53920;51.094;5.902;2023-04-25T01:01:06;8.15;69.84
67005;HTU21D;53920;51.094;5.902;2023-04-25T01:03:33;8.16;69.83
67005;HTU21D;53920;51.094;5.902;2023-04-25T01:06:01;8.17;69.75
67005;HTU21D;53920;51.094;5.902;2023-04-25T01:08:28;8.18;69.92
67005;HTU21D;53920;51.094;5.902;2023-04-25T01:10:54;8.21;69.92
67005;HTU21D;53920;51.094;5.902;2023-04-25T01:13:20;8.28;69.71
67005;HTU21D;53920;51.094;5.902;2023-04-25T01:15:47;8.32;69.60
67005;HTU21D;53920;51.094;5.902;2023-04-25T01:18:14;8.36;69.56
67005;HTU21D;53920;51.094;5.902;2023-04-25T01:20:41;8.41;69.68
67005;HTU21D;53920;51.094;5.902;2023-04-25T01:23:08;8.43;69.44
67005;HTU21D;53920;51.094;5.902;2023-04-25T01:25:34;8.46;69.41
67005;HTU21D;53920;51.094;5.902;2023-04-25T01:28:00;8.49;69.37
67005;HTU21D;53920;51.094;5.902;2023-04-25T01:30:28;8.52;69.12
67005;HTU21D;53920;51.094;5.902;2023-04-25T01:32:56;8.51;68.91
67005;HTU21D;53920;51.094;5.902;2023-04-25T01:35:22;8.52;68.85
67005;HTU21D;53920;51.094;5.902;2023-04-25T01:37:53;8.50;68.86
67005;HTU21D;53920;51.094;5.902;2023-04-25T01:40:21;8.51;68.79
67005;HTU21D;53920;51.094;5.902;2023-04-25T01:42:48;8.44;69.05
67005;HTU21D;53920;51.094;5.902;2023-04-25T01:45:14;8.42;69.23
67005;HTU21D;53920;51.094;5.902;2023-04-25T01:47:40;8.39;69.29
67005;HTU21D;53920;51.094;5.902;2023-04-25T01:50:09;8.36;69.49
67005;HTU21D;53920;51.094;5.902;2023-04-25T01:52:36;8.35;69.84
67005;HTU21D;53920;51.094;5.902;2023-04-25T01:55:05;8.33;69.84
67005;HTU21D;53920;51.094;5.902;2023-04-25T01:57:33;8.31;69.99
67005;HTU21D;53920;51.094;5.902;2023-04-25T02:00:04;8.31;70.09
67005;HTU21D;53920;51.094;5.902;2023-04-25T02:02:39;8.33;70.13
67005;HTU21D;53920;51.094;5.902;2023-04-25T02:05:12;8.33;70.11
67005;HTU21D;53920;51.094;5.902;2023-04-25T02:07:39;8.37;70.17
67005;HTU21D;53920;51.094;5.902;2023-04-25T02:10:06;8.41;69.91
67005;HTU21D;53920;51.094;5.902;2023-04-25T02:12:36;8.42;69.90
67005;HTU21D;53920;51.094;5.902;2023-04-25T02:15:21;8.44;69.91
67005;HTU21D;53920;51.094;5.902;2023-04-25T02:17:53;8.46;69.91
67005;HTU21D;53920;51.094;5.902;2023-04-25T02:20:21;8.45;69.82
67005;HTU21D;53920;51.094;5.902;2023-04-25T02:22:47;8.47;69.79
67005;HTU21D;53920;51.094;5.902;2023-04-25T02:25:13;8.47;69.62
67005;HTU21D;53920;51.094;5.902;2023-04-25T02:27:42;8.49;69.78
67005;HTU21D;53920;51.094;5.902;2023-04-25T02:30:09;8.53;69.79
67005;HTU21D;53920;51.094;5.902;2023-04-25T02:32:35;8.58;69.81
67005;HTU21D;53920;51.094;5.902;2023-04-25T02:35:02;8.61;69.58
67005;HTU21D;53920;51.094;5.902;2023-04-25T02:37:31;8.61;69.80
67005;HTU21D;53920;51.094;5.902;2023-04-25T02:39:58;8.64;69.69
67005;HTU21D;53920;51.094;5.902;2023-04-25T02:42:24;8.65;69.64
67005;HTU21D;53920;51.094;5.902;2023-04-25T02:44:50;8.68;69.81
67005;HTU21D;53920;51.094;5.902;2023-04-25T02:47:16;8.71;69.89
67005;HTU21D;53920;51.094;5.902;2023-04-25T02:49:42;8.73;69.83
67005;HTU21D;53920;51.094;5.902;2023-04-25T02:52:09;8.76;69.77
67005;HTU21D;53920;51.094;5.902;2023-04-25T02:54:35;8.71;69.71
67005;HTU21D;53920;51.094;5.902;2023-04-25T02:57:01;8.67;69.85
67005;HTU21D;53920;51.094;5.902;2023-04-25T02:59:34;8.62;69.95
67005;HTU21D;53920;51.094;5.902;2023-04-25T03:02:00;8.58;69.98
67005;HTU21D;53920;51.094;5.902;2023-04-25T03:04:27;8.52;70.10
67005;HTU21D;53920;51.094;5.902;2023-04-25T03:06:53;8.47;70.27
67005;HTU21D;53920;51.094;5.902;2023-04-25T03:09:21;8.45;70.41
67005;HTU21D;53920;51.094;5.902;2023-04-25T03:11:47;8.44;70.35
67005;HTU21D;53920;51.094;5.902;2023-04-25T03:14:13;8.47;70.41
67005;HTU21D;53920;51.094;5.902;2023-04-25T03:16:40;8.49;70.45
67005;HTU21D;53920;51.094;5.902;2023-04-25T03:19:06;8.50;70.42
67005;HTU21D;53920;51.094;5.902;2023-04-25T03:21:33;8.50;70.37
67005;HTU21D;53920;51.094;5.902;2023-04-25T03:24:02;8.56;70.40
67005;HTU21D;53920;51.094;5.902;2023-04-25T03:26:28;8.55;70.13
67005;HTU21D;53920;51.094;5.902;2023-04-25T03:28:54;8.52;69.94
67005;HTU21D;53920;51.094;5.902;2023-04-25T03:31:21;8.53;69.95
67005;HTU21D;53920;51.094;5.902;2023-04-25T03:33:48;8.55;69.88
67005;HTU21D;53920;51.094;5.902;2023-04-25T03:36:14;8.55;69.83
67005;HTU21D;53920;51.094;5.902;2023-04-25T03:38:40;8.56;69.77
67005;HTU21D;53920;51.094;5.902;2023-04-25T03:41:12;8.57;69.74
67005;HTU21D;53920;51.094;5.902;2023-04-25T03:43:44;8.58;69.71
67005;HTU21D;53920;51.094;5.902;2023-04-25T03:46:12;8.57;69.74
67005;HTU21D;53920;51.094;5.902;2023-04-25T03:48:39;8.55;69.58
67005;HTU21D;53920;51.094;5.902;2023-04-25T03:51:06;8.52;69.59
67005;HTU21D;53920;51.094;5.902;2023-04-25T03:53:36;8.50;69.56
67005;HTU21D;53920;51.094;5.902;2023-04-25T03:56:27;8.53;69.39
67005;HTU21D;53920;51.094;5.902;2023-04-25T03:59:00;8.56;69.40
67005;HTU21D;53920;51.094;5.902;2023-04-25T04:01:28;8.58;69.35
67005;HTU21D;53920;51.094;5.902;2023-04-25T04:03:55;8.58;69.26
67005;HTU21D;53920;51.094;5.902;2023-04-25T04:06:21;8.60;69.37
67005;HTU21D;53920;51.094;5.902;2023-04-25T04:08:51;8.63;69.36
67005;HTU21D;53920;51.094;5.902;2023-04-25T04:11:17;8.68;69.33
67005;HTU21D;53920;51.094;5.902;2023-04-25T04:13:43;8.67;69.30
67005;HTU21D;53920;51.094;5.902;2023-04-25T04:16:09;8.68;69.22
67005;HTU21D;53920;51.094;5.902;2023-04-25T04:18:35;8.67;69.11
67005;HTU21D;53920;51.094;5.902;2023-04-25T04:21:02;8.66;69.27
67005;HTU21D;53920;51.094;5.902;2023-04-25T04:23:30;8.65;69.39
67005;HTU21D;53920;51.094;5.902;2023-04-25T04:25:58;8.66;69.33
67005;HTU21D;53920;51.094;5.902;2023-04-25T04:28:47;8.71;69.50
67005;HTU21D;53920;51.094;5.902;2023-04-25T04:31:23;8.72;69.58
67005;HTU21D;53920;51.094;5.902;2023-04-25T04:33:50;8.73;69.49
67005;HTU21D;53920;51.094;5.902;2023-04-25T04:36:16;8.75;69.34
67005;HTU21D;53920;51.094;5.902;2023-04-25T04:38:46;8.76;69.27
67005;HTU21D;53920;51.094;5.902;2023-04-25T04:41:19;8.76;69.24
67005;HTU21D;53920;51.094;5.902;2023-04-25T04:44:08;8.76;69.12
67005;HTU21D;53920;51.094;5.902;2023-04-25T04:46:54;8.76;69.06
67005;HTU21D;53920;51.094;5.902;2023-04-25T04:49:25;8.77;69.16
67005;HTU21D;53920;51.094;5.902;2023-04-25T04:52:21;8.83;69.04
67005;HTU21D;53920;51.094;5.902;2023-04-25T04:55:02;8.87;68.86
67005;HTU21D;53920;51.094;5.902;2023-04-25T04:57:54;8.87;68.88
67005;HTU21D;53920;51.094;5.902;2023-04-25T05:00:38;8.88;68.58
67005;HTU21D;53920;51.094;5.902;2023-04-25T05:03:35;8.89;68.39
67005;HTU21D;53920;51.094;5.902;2023-04-25T05:06:11;8.93;68.20
67005;HTU21D;53920;51.094;5.902;2023-04-25T05:09:00;9.02;68.11
67005;HTU21D;53920;51.094;5.902;2023-04-25T05:11:44;9.07;67.98
67005;HTU21D;53920;51.094;5.902;2023-04-25T05:14:30;9.10;67.90
67005;HTU21D;53920;51.094;5.902;2023-04-25T05:17:22;9.12;67.62
67005;HTU21D;53920;51.094;5.902;2023-04-25T05:19:56;9.17;67.40
67005;HTU21D;53920;51.094;5.902;2023-04-25T05:22:52;9.22;67.29
67005;HTU21D;53920;51.094;5.902;2023-04-25T05:25:38;9.30;67.26
67005;HTU21D;53920;51.094;5.902;2023-04-25T05:28:15;9.35;67.04
67005;HTU21D;53920;51.094;5.902;2023-04-25T05:30:51;9.35;66.89
67005;HTU21D;53920;51.094;5.902;2023-04-25T05:33:30;9.44;66.80
67005;HTU21D;53920;51.094;5.902;2023-04-25T05:35:56;9.48;66.64
67005;HTU21D;53920;51.094;5.902;2023-04-25T05:38:23;9.53;66.28
67005;HTU21D;53920;51.094;5.902;2023-04-25T05:41:07;9.60;65.97
67005;HTU21D;53920;51.094;5.902;2023-04-25T05:44:00;9.65;65.62
67005;HTU21D;53920;51.094;5.902;2023-04-25T05:46:41;9.67;65.21
67005;HTU21D;53920;51.094;5.902;2023-04-25T05:49:20;9.69;64.72
67005;HTU21D;53920;51.094;5.902;2023-04-25T05:52:02;9.78;64.43
67005;HTU21D;53920;51.094;5.902;2023-04-25T05:55:03;9.81;64.08
67005;HTU21D;53920;51.094;5.902;2023-04-25T05:57:31;9.83;63.73
67005;HTU21D;53920;51.094;5.902;2023-04-25T05:59:57;9.85;63.57
67005;HTU21D;53920;51.094;5.902;2023-04-25T06:02:39;9.88;63.38
67005;HTU21D;53920;51.094;5.902;2023-04-25T06:05:22;9.97;63.16
67005;HTU21D;53920;51.094;5.902;2023-04-25T06:07:48;10.05;62.92
67005;HTU21D;53920;51.094;5.902;2023-04-25T06:10:14;10.11;62.50
67005;HTU21D;53920;51.094;5.902;2023-04-25T06:12:41;10.16;62.34
67005;HTU21D;53920;51.094;5.902;2023-04-25T06:15:07;10.20;62.33
67005;HTU21D;53920;51.094;5.902;2023-04-25T06:17:33;10.16;62.49
67005;HTU21D;53920;51.094;5.902;2023-04-25T06:20:01;10.18;62.50
67005;HTU21D;53920;51.094;5.902;2023-04-25T06:22:27;10.21;62.21
67005;HTU21D;53920;51.094;5.902;2023-04-25T06:24:54;10.33;62.14
67005;HTU21D;53920;51.094;5.902;2023-04-25T06:27:22;10.49;61.63
67005;HTU21D;53920;51.094;5.902;2023-04-25T06:29:49;10.69;61.15
67005;HTU21D;53920;51.094;5.902;2023-04-25T06:32:15;10.88;60.32
67005;HTU21D;53920;51.094;5.902;2023-04-25T06:34:41;11.18;59.70
67005;HTU21D;53920;51.094;5.902;2023-04-25T06:37:07;11.32;59.35
67005;HTU21D;53920;51.094;5.902;2023-04-25T06:39:32;11.44;58.72
67005;HTU21D;53920;51.094;5.902;2023-04-25T06:41:58;11.57;58.41
67005;HTU21D;53920;51.094;5.902;2023-04-25T06:44:53;11.66;58.21
67005;HTU21D;53920;51.094;5.902;2023-04-25T06:47:20;11.76;57.80
67005;HTU21D;53920;51.094;5.902;2023-04-25T06:49:47;11.97;57.29
67005;HTU21D;53920;51.094;5.902;2023-04-25T06:52:14;12.16;56.63
67005;HTU21D;53920;51.094;5.902;2023-04-25T06:54:41;12.30;56.51
67005;HTU21D;53920;51.094;5.902;2023-04-25T06:57:20;12.41;55.91
67005;HTU21D;53920;51.094;5.902;2023-04-25T06:59:47;12.47;55.22
67005;HTU21D;53920;51.094;5.902;2023-04-25T07:02:14;12.63;54.91
67005;HTU21D;53920;51.094;5.902;2023-04-25T07:04:41;12.72;54.48
67005;HTU21D;53920;51.094;5.902;2023-04-25T07:07:08;12.72;54.11
67005;HTU21D;53920;51.094;5.902;2023-04-25T07:09:41;12.69;54.13
67005;HTU21D;53920;51.094;5.902;2023-04-25T07:12:07;12.62;54.37
67005;HTU21D;53920;51.094;5.902;2023-04-25T07:14:33;12.53;54.15
67005;HTU21D;53920;51.094;5.902;2023-04-25T07:17:00;12.47;54.07
67005;HTU21D;53920;51.094;5.902;2023-04-25T07:19:28;12.61;53.59
67005;HTU21D;53920;51.094;5.902;2023-04-25T07:21:58;12.86;52.15
67005;HTU21D;53920;51.094;5.902;2023-04-25T07:24:24;13.01;51.34
67005;HTU21D;53920;51.094;5.902;2023-04-25T07:26:51;13.16;51.11
67005;HTU21D;53920;51.094;5.902;2023-04-25T07:29:33;13.25;50.50
67005;HTU21D;53920;51.094;5.902;2023-04-25T07:32:03;13.36;50.04
67005;HTU21D;53920;51.094;5.902;2023-04-25T07:34:29;13.54;49.63
67005;HTU21D;53920;51.094;5.902;2023-04-25T07:36:56;13.50;48.95
67005;HTU21D;53920;51.094;5.902;2023-04-25T07:39:26;13.59;49.32
67005;HTU21D;53920;51.094;5.902;2023-04-25T07:41:53;13.73;49.28
67005;HTU21D;53920;51.094;5.902;2023-04-25T07:44:23;13.82;49.18
67005;HTU21D;53920;51.094;5.902;2023-04-25T07:46:49;14.01;48.41
67005;HTU21D;53920;51.094;5.902;2023-04-25T07:49:15;14.20;47.82
67005;HTU21D;53920;51.094;5.902;2023-04-25T07:51:43;14.20;46.83
67005;HTU21D;53920;51.094;5.902;2023-04-25T07:54:14;13.98;46.62
67005;HTU21D;53920;51.094;5.902;2023-04-25T07:56:45;13.85;46.76
67005;HTU21D;53920;51.094;5.902;2023-04-25T07:59:11;13.83;47.63
67005;HTU21D;53920;51.094;5.902;2023-04-25T08:01:38;13.85;47.70
67005;HTU21D;53920;51.094;5.902;2023-04-25T08:04:06;13.95;48.02
67005;HTU21D;53920;51.094;5.902;2023-04-25T08:06:46;14.17;47.05
67005;HTU21D;53920;51.094;5.902;2023-04-25T08:09:16;14.11;46.78
67005;HTU21D;53920;51.094;5.902;2023-04-25T08:11:44;14.18;46.44
67005;HTU21D;53920;51.094;5.902;2023-04-25T08:14:12;14.18;45.99
67005;HTU21D;53920;51.094;5.902;2023-04-25T08:16:40;14.03;45.47
67005;HTU21D;53920;51.094;5.902;2023-04-25T08:19:06;13.90;46.10
67005;HTU21D;53920;51.094;5.902;2023-04-25T08:21:32;13.71;47.38
67005;HTU21D;53920;51.094;5.902;2023-04-25T08:24:01;13.63;46.69
67005;HTU21D;53920;51.094;5.902;2023-04-25T08:26:31;13.53;46.72
67005;HTU21D;53920;51.094;5.902;2023-04-25T08:28:58;13.43;46.82
67005;HTU21D;53920;51.094;5.902;2023-04-25T08:31:24;13.43;46.47
67005;HTU21D;53920;51.094;5.902;2023-04-25T08:33:57;13.49;45.65
67005;HTU21D;53920;51.094;5.902;2023-04-25T08:36:29;13.68;45.44
67005;HTU21D;53920;51.094;5.902;2023-04-25T08:38:58;13.83;45.38
67005;HTU21D;53920;51.094;5.902;2023-04-25T08:41:25;14.11;45.70
67005;HTU21D;53920;51.094;5.902;2023-04-25T08:43:53;14.50;44.35
67005;HTU21D;53920;51.094;5.902;2023-04-25T08:46:23;15.40;42.63
67005;HTU21D;53920;51.094;5.902;2023-04-25T08:49:12;17.30;38.29
67005;HTU21D;53920;51.094;5.902;2023-04-25T08:51:45;17.99;36.06
67005;HTU21D;53920;51.094;5.902;2023-04-25T08:54:14;17.98;36.44
67005;HTU21D;53920;51.094;5.902;2023-04-25T08:56:45;17.68;36.89
67005;HTU21D;53920;51.094;5.902;2023-04-25T08:59:13;17.74;37.01
67005;HTU21D;53920;51.094;5.902;2023-04-25T09:01:40;17.43;36.74
67005;HTU21D;53920;51.094;5.902;2023-04-25T09:04:06;16.87;36.63
67005;HTU21D;53920;51.094;5.902;2023-04-25T09:06:34;16.13;38.56
67005;HTU21D;53920;51.094;5.902;2023-04-25T09:09:06;15.98;39.32
67005;HTU21D;53920;51.094;5.902;2023-04-25T09:11:34;15.74;39.06
67005;HTU21D;53920;51.094;5.902;2023-04-25T09:14:20;15.14;39.48
67005;HTU21D;53920;51.094;5.902;2023-04-25T09:17:18;14.74;40.91
67005;HTU21D;53920;51.094;5.902;2023-04-25T09:19:50;14.40;40.88
67005;HTU21D;53920;51.094;5.902;2023-04-25T09:22:22;14.10;41.42
67005;HTU21D;53920;51.094;5.902;2023-04-25T09:24:49;14.34;42.01
67005;HTU21D;53920;51.094;5.902;2023-04-25T09:27:21;14.38;41.32
67005;HTU21D;53920;51.094;5.902;2023-04-25T09:29:59;14.26;42.81
67005;HTU21D;53920;51.094;5.902;2023-04-25T09:32:36;14.04;43.16
67005;HTU21D;53920;51.094;5.902;2023-04-25T09:35:04;14.00;44.67
67005;HTU21D;53920;51.094;5.902;2023-04-25T09:37:30;13.95;44.61
67005;HTU21D;53920;51.094;5.902;2023-04-25T09:40:20;14.11;44.86
67005;HTU21D;53920;51.094;5.902;2023-04-25T09:43:00;14.44;44.23
67005;HTU21D;53920;51.094;5.902;2023-04-25T09:45:29;14.69;43.76
67005;HTU21D;53920;51.094;5.902;2023-04-25T09:48:03;14.74;43.12
67005;HTU21D;53920;51.094;5.902;2023-04-25T09:50:32;14.59;43.32
67005;HTU21D;53920;51.094;5.902;2023-04-25T09:53:05;14.21;42.15
67005;HTU21D;53920;51.094;5.902;2023-04-25T09:56:00;14.10;40.97
67005;HTU21D;53920;51.094;5.902;2023-04-25T09:58:29;14.45;40.67
67005;HTU21D;53920;51.094;5.902;2023-04-25T10:01:04;14.81;40.02
67005;HTU21D;53920;51.094;5.902;2023-04-25T10:03:40;15.01;39.09
67005;HTU21D;53920;51.094;5.902;2023-04-25T10:06:34;15.11;38.78
67005;HTU21D;53920;51.094;5.902;2023-04-25T10:09:01;15.03;40.08
67005;HTU21D;53920;51.094;5.902;2023-04-25T10:11:30;15.15;40.32
67005;HTU21D;53920;51.094;5.902;2023-04-25T10:13:57;15.48;39.22
67005;HTU21D;53920;51.094;5.902;2023-04-25T10:16:26;15.67;38.74
67005;HTU21D;53920;51.094;5.902;2023-04-25T10:18:53;15.86;38.90
67005;HTU21D;53920;51.094;5.902;2023-04-25T10:21:21;16.12;37.94
67005;HTU21D;53920;51.094;5.902;2023-04-25T10:23:49;16.28;37.37
67005;HTU21D;53920;51.094;5.902;2023-04-25T10:26:15;16.11;35.68
67005;HTU21D;53920;51.094;5.902;2023-04-25T10:28:56;15.80;35.61
67005;HTU21D;53920;51.094;5.902;2023-04-25T10:31:25;15.81;36.50
67005;HTU21D;53920;51.094;5.902;2023-04-25T10:33:51;16.10;36.41
67005;HTU21D;53920;51.094;5.902;2023-04-25T10:36:19;17.28;34.83
67005;HTU21D;53920;51.094;5.902;2023-04-25T10:38:48;18.65;32.60
67005;HTU21D;53920;51.094;5.902;2023-04-25T10:41:19;20.07;31.32
67005;HTU21D;53920;51.094;5.902;2023-04-25T10:43:47;21.45;28.33
67005;HTU21D;53920;51.094;5.902;2023-04-25T10:46:14;22.35;25.37
67005;HTU21D;53920;51.094;5.902;2023-04-25T10:48:54;22.68;25.09
67005;HTU21D;53920;51.094;5.902;2023-04-25T10:53:59;23.40;22.65
67005;HTU21D;53920;51.094;5.902;2023-04-25T10:56:28;24.59;22.00
67005;HTU21D;53920;51.094;5.902;2023-04-25T11:01:43;27.02;18.31
67005;HTU21D;53920;51.094;5.902;2023-04-25T11:04:32;27.23;18.15
67005;HTU21D;53920;51.094;5.902;2023-04-25T11:09:28;26.21;18.28
67005;HTU21D;53920;51.094;5.902;2023-04-25T11:11:56;25.48;19.03
67005;HTU21D;53920;51.094;5.902;2023-04-25T11:14:22;24.69;19.99
67005;HTU21D;53920;51.094;5.902;2023-04-25T11:16:55;23.45;21.60
67005;HTU21D;53920;51.094;5.902;2023-04-25T11:19:22;22.14;23.91
67005;HTU21D;53920;51.094;5.902;2023-04-25T11:21:49;20.77;25.98
67005;HTU21D;53920;51.094;5.902;2023-04-25T11:24:18;19.54;28.02
67005;HTU21D;53920;51.094;5.902;2023-04-25T11:26:47;18.73;30.38
67005;HTU21D;53920;51.094;5.902;2023-04-25T11:29:16;17.93;32.15
67005;HTU21D;53920;51.094;5.902;2023-04-25T11:31:44;17.19;32.40
67005;HTU21D;53920;51.094;5.902;2023-04-25T11:34:19;16.56;33.38
67005;HTU21D;53920;51.094;5.902;2023-04-25T11:36:46;16.27;34.76
67005;HTU21D;53920;51.094;5.902;2023-04-25T11:39:12;16.16;34.86
67005;HTU21D;53920;51.094;5.902;2023-04-25T11:41:38;16.56;34.44
67005;HTU21D;53920;51.094;5.902;2023-04-25T11:44:05;17.18;32.41
67005;HTU21D;53920;51.094;5.902;2023-04-25T11:46:35;17.11;32.20
67005;HTU21D;53920;51.094;5.902;2023-04-25T11:49:01;16.90;32.51
67005;HTU21D;53920;51.094;5.902;2023-04-25T11:51:27;16.85;33.99
67005;HTU21D;53920;51.094;5.902;2023-04-25T11:53:53;16.80;35.09
67005;HTU21D;53920;51.094;5.902;2023-04-25T11:56:20;16.55;33.82
67005;HTU21D;53920;51.094;5.902;2023-04-25T11:59:02;16.32;33.47
67005;HTU21D;53920;51.094;5.902;2023-04-25T12:01:38;17.25;31.93
67005;HTU21D;53920;51.094;5.902;2023-04-25T12:04:18;19.16;30.04
67005;HTU21D;53920;51.094;5.902;2023-04-25T12:06:47;22.19;26.17
67005;HTU21D;53920;51.094;5.902;2023-04-25T12:09:19;24.53;20.96
67005;HTU21D;53920;51.094;5.902;2023-04-25T12:11:56;24.25;21.51
67005;HTU21D;53920;51.094;5.902;2023-04-25T12:14:24;23.03;21.66
67005;HTU21D;53920;51.094;5.902;2023-04-25T12:16:51;21.72;23.85
67005;HTU21D;53920;51.094;5.902;2023-04-25T12:19:19;20.71;26.17
67005;HTU21D;53920;51.094;5.902;2023-04-25T12:21:47;19.76;27.96
67005;HTU21D;53920;51.094;5.902;2023-04-25T12:29:23;17.03;33.13
67005;HTU21D;53920;51.094;5.902;2023-04-25T12:31:50;16.29;35.52
67005;HTU21D;53920;51.094;5.902;2023-04-25T12:34:20;15.68;38.47
67005;HTU21D;53920;51.094;5.902;2023-04-25T12:36:47;15.22;41.62
67005;HTU21D;53920;51.094;5.902;2023-04-25T12:39:23;14.79;43.35
67005;HTU21D;53920;51.094;5.902;2023-04-25T12:41:52;14.51;43.74
67005;HTU21D;53920;51.094;5.902;2023-04-25T12:44:21;14.40;43.61
67005;HTU21D;53920;51.094;5.902;2023-04-25T12:46:48;14.32;42.14
67005;HTU21D;53920;51.094;5.902;2023-04-25T12:49:14;14.27;41.97
67005;HTU21D;53920;51.094;5.902;2023-04-25T12:51:40;14.32;41.47
67005;HTU21D;53920;51.094;5.902;2023-04-25T12:54:07;14.52;41.41
67005;HTU21D;53920;51.094;5.902;2023-04-25T12:56:34;14.82;41.65
67005;HTU21D;53920;51.094;5.902;2023-04-25T12:59:01;15.06;40.04
67005;HTU21D;53920;51.094;5.902;2023-04-25T13:01:29;15.22;39.27
67005;HTU21D;53920;51.094;5.902;2023-04-25T13:03:55;15.14;40.09
67005;HTU21D;53920;51.094;5.902;2023-04-25T13:06:22;15.12;40.55
67005;HTU21D;53920;51.094;5.902;2023-04-25T13:08:47;15.34;41.20
67005;HTU21D;53920;51.094;5.902;2023-04-25T13:11:14;17.25;39.38
67005;HTU21D;53920;51.094;5.902;2023-04-25T13:13:44;18.08;36.18
67005;HTU21D;53920;51.094;5.902;2023-04-25T13:16:10;18.04;35.95
67005;HTU21D;53920;51.094;5.902;2023-04-25T13:18:39;17.76;36.98
67005;HTU21D;53920;51.094;5.902;2023-04-25T13:21:05;17.59;37.27
67005;HTU21D;53920;51.094;5.902;2023-04-25T13:23:31;17.52;36.98
67005;HTU21D;53920;51.094;5.902;2023-04-25T13:25:57;17.34;36.75
67005;HTU21D;53920;51.094;5.902;2023-04-25T13:28:26;17.16;36.97
67005;HTU21D;53920;51.094;5.902;2023-04-25T13:30:52;17.41;36.39
67005;HTU21D;53920;51.094;5.902;2023-04-25T13:33:19;17.54;36.07
67005;HTU21D;53920;51.094;5.902;2023-04-25T13:35:48;18.20;35.05
67005;HTU21D;53920;51.094;5.902;2023-04-25T13:38:24;20.37;32.34
67005;HTU21D;53920;51.094;5.902;2023-04-25T13:40:51;22.13;28.74
67005;HTU21D;53920;51.094;5.902;2023-04-25T13:43:21;23.14;26.52
67005;HTU21D;53920;51.094;5.902;2023-04-25T13:45:50;23.69;24.78
67005;HTU21D;53920;51.094;5.902;2023-04-25T13:48:16;24.03;24.93
67005;HTU21D;53920;51.094;5.902;2023-04-25T13:50:42;24.21;23.35
67005;HTU21D;53920;51.094;5.902;2023-04-25T13:53:08;24.19;23.30
67005;HTU21D;53920;51.094;5.902;2023-04-25T13:55:35;24.12;23.22
67005;HTU21D;53920;51.094;5.902;2023-04-25T13:58:02;23.95;23.02
67005;HTU21D;53920;51.094;5.902;2023-04-25T14:00:35;23.91;23.85
67005;HTU21D;53920;51.094;5.902;2023-04-25T14:03:01;23.90;24.12
67005;HTU21D;53920;51.094;5.902;2023-04-25T14:05:30;23.89;23.68
67005;HTU21D;53920;51.094;5.902;2023-04-25T14:07:56;23.76;23.51
67005;HTU21D;53920;51.094;5.902;2023-04-25T14:10:22;23.43;22.96
67005;HTU21D;53920;51.094;5.902;2023-04-25T14:12:48;23.51;23.59
67005;HTU21D;53920;51.094;5.902;2023-04-25T14:15:14;23.39;24.21
67005;HTU21D;53920;51.094;5.902;2023-04-25T14:17:40;23.27;23.80
67005;HTU21D;53920;51.094;5.902;2023-04-25T14:20:08;22.90;23.99
67005;HTU21D;53920;51.094;5.902;2023-04-25T14:22:34;22.42;24.35
67005;HTU21D;53920;51.094;5.902;2023-04-25T14:25:00;21.47;26.16
67005;HTU21D;53920;51.094;5.902;2023-04-25T14:27:26;20.27;27.41
67005;HTU21D;53920;51.094;5.902;2023-04-25T14:29:52;19.45;28.28
67005;HTU21D;53920;51.094;5.902;2023-04-25T14:32:18;18.74;28.74
67005;HTU21D;53920;51.094;5.902;2023-04-25T14:34:44;17.96;29.50
67005;HTU21D;53920;51.094;5.902;2023-04-25T14:37:10;17.37;31.32
67005;HTU21D;53920;51.094;5.902;2023-04-25T14:39:36;16.93;33.73
67005;HTU21D;53920;51.094;5.902;2023-04-25T14:42:03;16.39;32.89
67005;HTU21D;53920;51.094;5.902;2023-04-25T14:44:29;15.76;33.25
67005;HTU21D;53920;51.094;5.902;2023-04-25T14:46:55;15.38;34.32
67005;HTU21D;53920;51.094;5.902;2023-04-25T14:49:21;15.03;34.70
67005;HTU21D;53920;51.094;5.902;2023-04-25T14:51:47;14.82;35.79
67005;HTU21D;53920;51.094;5.902;2023-04-25T14:54:13;14.66;36.73
67005;HTU21D;53920;51.094;5.902;2023-04-25T14:56:39;14.55;36.40
67005;HTU21D;53920;51.094;5.902;2023-04-25T14:59:05;14.45;36.17
67005;HTU21D;53920;51.094;5.902;2023-04-25T15:01:31;14.57;36.48
67005;HTU21D;53920;51.094;5.902;2023-04-25T15:03:57;14.70;35.85
67005;HTU21D;53920;51.094;5.902;2023-04-25T15:06:23;15.02;36.26
67005;HTU21D;53920;51.094;5.902;2023-04-25T15:08:52;15.30;35.32
67005;HTU21D;53920;51.094;5.902;2023-04-25T15:11:19;15.76;34.05
67005;HTU21D;53920;51.094;5.902;2023-04-25T15:13:46;16.40;34.12
67005;HTU21D;53920;51.094;5.902;2023-04-25T15:16:11;16.67;32.80
67005;HTU21D;53920;51.094;5.902;2023-04-25T15:18:37;16.72;32.41
67005;HTU21D;53920;51.094;5.902;2023-04-25T15:21:03;16.66;33.34
67005;HTU21D;53920;51.094;5.902;2023-04-25T15:23:29;16.58;33.23
67005;HTU21D;53920;51.094;5.902;2023-04-25T15:25:56;16.54;32.93
67005;HTU21D;53920;51.094;5.902;2023-04-25T15:28:22;16.28;31.69
67005;HTU21D;53920;51.094;5.902;2023-04-25T15:30:48;16.08;31.78
67005;HTU21D;53920;51.094;5.902;2023-04-25T15:33:14;15.97;32.21
67005;HTU21D;53920;51.094;5.902;2023-04-25T15:35:40;15.95;33.57
67005;HTU21D;53920;51.094;5.902;2023-04-25T15:38:07;15.75;33.57
67005;HTU21D;53920;51.094;5.902;2023-04-25T15:40:34;15.49;35.34
67005;HTU21D;53920;51.094;5.902;2023-04-25T15:43:00;15.16;34.65
67005;HTU21D;53920;51.094;5.902;2023-04-25T15:45:26;14.97;34.72
67005;HTU21D;53920;51.094;5.902;2023-04-25T15:47:54;14.91;34.96
67005;HTU21D;53920;51.094;5.902;2023-04-25T15:50:20;15.03;34.31